createdAt,value
2016-05-25T00:00:02.875Z,1011.48
2016-05-25T00:00:12.860Z,1011.49
2016-05-25T00:00:22.844Z,1011.48
2016-05-25T00:00:32.860Z,1011.51
2016-05-25T00:00:42.688Z,1011.46
2016-05-25T00:00:52.844Z,1011.48
2016-05-25T00:01:02.831Z,1011.52
2016-05-25T00:01:12.675Z,1011.47
2016-05-25T00:01:22.659Z,1011.48
2016-05-25T00:01:33.238Z,1011.5
2016-05-25T00:01:42.800Z,1011.48
2016-05-25T00:01:52.816Z,1011.48
2016-05-25T00:02:02.833Z,1011.51
2016-05-25T00:02:12.802Z,1011.49
2016-05-25T00:02:22.630Z,1011.46
2016-05-25T00:02:32.615Z,1011.45
2016-05-25T00:02:42.771Z,1011.5
2016-05-25T00:02:52.771Z,1011.47
2016-05-25T00:03:02.758Z,1011.43
2016-05-25T00:03:12.758Z,1011.47
2016-05-25T00:03:22.758Z,1011.5
2016-05-25T00:03:32.743Z,1011.48
2016-05-25T00:03:42.743Z,1011.47
2016-05-25T00:03:52.727Z,1011.44
2016-05-25T00:04:02.746Z,1011.48
2016-05-25T00:04:12.730Z,1011.46
2016-05-25T00:04:22.730Z,1011.5
2016-05-25T00:04:32.714Z,1011.47
2016-05-25T00:04:42.714Z,1011.51
2016-05-25T00:04:52.699Z,1011.48
2016-05-25T00:05:02.702Z,1011.5
2016-05-25T00:05:12.702Z,1011.47
2016-05-25T00:05:22.702Z,1011.47
2016-05-25T00:05:32.686Z,1011.47
2016-05-25T00:05:42.686Z,1011.48
2016-05-25T00:05:52.670Z,1011.48
2016-05-25T00:06:02.673Z,1011.48
2016-05-25T00:06:12.673Z,1011.47
2016-05-25T00:06:22.658Z,1011.47
2016-05-25T00:06:32.658Z,1011.46
2016-05-25T00:06:42.658Z,1011.45
2016-05-25T00:06:52.658Z,1011.46
2016-05-25T00:07:02.644Z,1011.53
2016-05-25T00:07:12.629Z,1011.44
2016-05-25T00:07:22.629Z,1011.47
2016-05-25T00:07:32.613Z,1011.48
2016-05-25T00:07:42.613Z,1011.47
2016-05-25T00:07:52.613Z,1011.47
2016-05-25T00:08:02.460Z,1011.55
2016-05-25T00:08:12.600Z,1011.48
2016-05-25T00:08:22.600Z,1011.47
2016-05-25T00:08:32.600Z,1011.47
2016-05-25T00:08:42.428Z,1011.48
2016-05-25T00:08:52.585Z,1011.48
2016-05-25T00:09:02.572Z,1011.48
2016-05-25T00:09:12.572Z,1011.5
2016-05-25T00:09:22.556Z,1011.46
2016-05-25T00:09:32.556Z,1011.45
2016-05-25T00:09:42.556Z,1011.46
2016-05-25T00:09:52.556Z,1011.45
2016-05-25T00:10:02.558Z,1011.47
2016-05-25T00:10:12.543Z,1011.44
2016-05-25T00:10:22.543Z,1011.47
2016-05-25T00:10:32.527Z,1011.46
2016-05-25T00:10:42.527Z,1011.44
2016-05-25T00:10:52.527Z,1011.47
2016-05-25T00:11:02.515Z,1011.47
2016-05-25T00:11:12.515Z,1011.45
2016-05-25T00:11:22.499Z,1011.49
2016-05-25T00:11:32.499Z,1011.47
2016-05-25T00:11:42.515Z,1011.48
2016-05-25T00:11:52.499Z,1011.47
2016-05-25T00:12:02.485Z,1011.46
2016-05-25T00:12:12.485Z,1011.48
2016-05-25T00:12:22.470Z,1011.47
2016-05-25T00:12:32.470Z,1011.44
2016-05-25T00:12:42.454Z,1011.45
2016-05-25T00:12:52.454Z,1011.47
2016-05-25T00:13:02.441Z,1011.48
2016-05-25T00:13:12.457Z,1011.51
2016-05-25T00:13:22.441Z,1011.43
2016-05-25T00:13:32.285Z,1011.44
2016-05-25T00:13:42.426Z,1011.46
2016-05-25T00:13:52.426Z,1011.45
2016-05-25T00:14:02.444Z,1011.43
2016-05-25T00:14:12.429Z,1011.45
2016-05-25T00:14:22.257Z,1011.45
2016-05-25T00:14:32.413Z,1011.45
2016-05-25T00:14:42.398Z,1011.43
2016-05-25T00:14:52.413Z,1011.47
2016-05-25T00:15:02.228Z,1011.48
2016-05-25T00:15:12.400Z,1011.42
2016-05-25T00:15:22.400Z,1011.42
2016-05-25T00:15:32.368Z,1011.45
2016-05-25T00:15:42.368Z,1011.45
2016-05-25T00:15:52.353Z,1011.44
2016-05-25T00:16:02.357Z,1011.45
2016-05-25T00:16:12.357Z,1011.43
2016-05-25T00:16:22.372Z,1011.4
2016-05-25T00:16:32.357Z,1011.48
2016-05-25T00:16:42.747Z,1011.47
2016-05-25T00:16:52.341Z,1011.42
2016-05-25T00:17:02.702Z,1011.44
2016-05-25T00:17:12.327Z,1011.44
2016-05-25T00:17:22.171Z,1011.49
2016-05-25T00:17:32.327Z,1011.39
2016-05-25T00:17:42.327Z,1011.42
2016-05-25T00:17:52.312Z,1011.44
2016-05-25T00:18:02.299Z,1011.46
2016-05-25T00:18:12.299Z,1011.42
2016-05-25T00:18:22.299Z,1011.44
2016-05-25T00:18:32.143Z,1011.43
2016-05-25T00:18:42.284Z,1011.4
2016-05-25T00:18:52.284Z,1011.42
2016-05-25T00:19:02.129Z,1011.43
2016-05-25T00:19:12.254Z,1011.42
2016-05-25T00:19:22.254Z,1011.37
2016-05-25T00:19:32.254Z,1011.38
2016-05-25T00:19:42.270Z,1011.39
2016-05-25T00:19:52.254Z,1011.36
2016-05-25T00:20:02.242Z,1011.43
2016-05-25T00:20:12.226Z,1011.37
2016-05-25T00:20:22.085Z,1011.38
2016-05-25T00:20:32.210Z,1011.4
2016-05-25T00:20:42.054Z,1011.43
2016-05-25T00:20:52.210Z,1011.42
2016-05-25T00:21:02.042Z,1011.39
2016-05-25T00:21:12.213Z,1011.37
2016-05-25T00:21:22.198Z,1011.4
2016-05-25T00:21:32.198Z,1011.38
2016-05-25T00:21:42.198Z,1011.37
2016-05-25T00:21:52.010Z,1011.37
2016-05-25T00:22:02.169Z,1011.41
2016-05-25T00:22:12.169Z,1011.4
2016-05-25T00:22:22.012Z,1011.37
2016-05-25T00:22:32.153Z,1011.35
2016-05-25T00:22:42.153Z,1011.38
2016-05-25T00:22:52.153Z,1011.39
2016-05-25T00:23:02.140Z,1011.38
2016-05-25T00:23:12.140Z,1011.34
2016-05-25T00:23:22.140Z,1011.35
2016-05-25T00:23:32.125Z,1011.36
2016-05-25T00:23:42.140Z,1011.35
2016-05-25T00:23:52.109Z,1011.38
2016-05-25T00:24:02.128Z,1011.36
2016-05-25T00:24:12.112Z,1011.29
2016-05-25T00:24:22.112Z,1011.33
2016-05-25T00:24:32.128Z,1011.34
2016-05-25T00:24:42.096Z,1011.38
2016-05-25T00:24:51.940Z,1011.34
2016-05-25T00:25:02.084Z,1011.34
2016-05-25T00:25:12.068Z,1011.32
2016-05-25T00:25:22.068Z,1011.35
2016-05-25T00:25:31.912Z,1011.3
2016-05-25T00:25:42.068Z,1011.32
2016-05-25T00:25:52.068Z,1011.34
2016-05-25T00:26:01.914Z,1011.39
2016-05-25T00:26:12.055Z,1011.32
2016-05-25T00:26:22.039Z,1011.35
2016-05-25T00:26:32.039Z,1011.36
2016-05-25T00:26:42.023Z,1011.34
2016-05-25T00:26:52.023Z,1011.35
2016-05-25T00:27:02.026Z,1011.34
2016-05-25T00:27:12.026Z,1011.33
2016-05-25T00:27:22.026Z,1011.34
2016-05-25T00:27:32.011Z,1011.34
2016-05-25T00:27:41.995Z,1011.32
2016-05-25T00:27:51.995Z,1011.33
2016-05-25T00:28:02.014Z,1011.32
2016-05-25T00:28:11.826Z,1011.33
2016-05-25T00:28:21.967Z,1011.31
2016-05-25T00:28:31.982Z,1011.3
2016-05-25T00:28:41.811Z,1011.36
2016-05-25T00:28:51.967Z,1011.34
2016-05-25T00:29:01.970Z,1011.32
2016-05-25T00:29:11.970Z,1011.34
2016-05-25T00:29:21.954Z,1011.3
2016-05-25T00:29:31.954Z,1011.34
2016-05-25T00:29:41.939Z,1011.34
2016-05-25T00:29:51.923Z,1011.33
2016-05-25T00:30:01.925Z,1011.34
2016-05-25T00:30:11.925Z,1011.27
2016-05-25T00:30:21.925Z,1011.32
2016-05-25T00:30:31.925Z,1011.3
2016-05-25T00:30:41.909Z,1011.33
2016-05-25T00:30:51.909Z,1011.32
2016-05-25T00:31:01.912Z,1011.33
2016-05-25T00:31:11.912Z,1011.33
2016-05-25T00:31:21.912Z,1011.3
2016-05-25T00:31:32.100Z,1011.31
2016-05-25T00:31:42.428Z,1011.32
2016-05-25T00:31:51.897Z,1011.34
2016-05-25T00:32:02.102Z,1011.32
2016-05-25T00:32:11.867Z,1011.33
2016-05-25T00:32:21.852Z,1011.36
2016-05-25T00:32:31.852Z,1011.34
2016-05-25T00:32:41.852Z,1011.33
2016-05-25T00:32:51.696Z,1011.36
2016-05-25T00:33:01.839Z,1011.34
2016-05-25T00:33:11.683Z,1011.39
2016-05-25T00:33:21.667Z,1011.34
2016-05-25T00:33:31.824Z,1011.34
2016-05-25T00:33:41.824Z,1011.34
2016-05-25T00:33:51.824Z,1011.36
2016-05-25T00:34:01.811Z,1011.34
2016-05-25T00:34:11.827Z,1011.38
2016-05-25T00:34:21.795Z,1011.32
2016-05-25T00:34:31.795Z,1011.35
2016-05-25T00:34:41.780Z,1011.34
2016-05-25T00:34:51.780Z,1011.32
2016-05-25T00:35:01.625Z,1011.31
2016-05-25T00:35:11.625Z,1011.34
2016-05-25T00:35:21.766Z,1011.38
2016-05-25T00:35:31.782Z,1011.35
2016-05-25T00:35:41.766Z,1011.36
2016-05-25T00:35:51.735Z,1011.32
2016-05-25T00:36:01.738Z,1011.34
2016-05-25T00:36:11.738Z,1011.36
2016-05-25T00:36:21.738Z,1011.35
2016-05-25T00:36:31.722Z,1011.29
2016-05-25T00:36:41.722Z,1011.38
2016-05-25T00:36:51.722Z,1011.32
2016-05-25T00:37:01.552Z,1011.32
2016-05-25T00:37:11.552Z,1011.28
2016-05-25T00:37:21.709Z,1011.3
2016-05-25T00:37:31.693Z,1011.33
2016-05-25T00:37:41.537Z,1011.31
2016-05-25T00:37:51.521Z,1011.33
2016-05-25T00:38:01.541Z,1011.33
2016-05-25T00:38:11.681Z,1011.33
2016-05-25T00:38:21.666Z,1011.33
2016-05-25T00:38:31.681Z,1011.31
2016-05-25T00:38:41.666Z,1011.33
2016-05-25T00:38:51.650Z,1011.3
2016-05-25T00:39:01.512Z,1011.36
2016-05-25T00:39:11.637Z,1011.3
2016-05-25T00:39:21.653Z,1011.31
2016-05-25T00:39:31.637Z,1011.33
2016-05-25T00:39:41.481Z,1011.32
2016-05-25T00:39:51.622Z,1011.35
2016-05-25T00:40:01.624Z,1011.33
2016-05-25T00:40:11.624Z,1011.29
2016-05-25T00:40:21.608Z,1011.31
2016-05-25T00:40:31.624Z,1011.33
2016-05-25T00:40:41.608Z,1011.29
2016-05-25T00:40:51.593Z,1011.34
2016-05-25T00:41:01.596Z,1011.33
2016-05-25T00:41:11.580Z,1011.3
2016-05-25T00:41:21.580Z,1011.29
2016-05-25T00:41:31.564Z,1011.3
2016-05-25T00:41:41.564Z,1011.31
2016-05-25T00:41:51.580Z,1011.34
2016-05-25T00:42:01.566Z,1011.3
2016-05-25T00:42:11.566Z,1011.31
2016-05-25T00:42:21.566Z,1011.34
2016-05-25T00:42:31.535Z,1011.3
2016-05-25T00:42:41.379Z,1011.3
2016-05-25T00:42:51.379Z,1011.3
2016-05-25T00:43:01.538Z,1011.34
2016-05-25T00:43:11.522Z,1011.27
2016-05-25T00:43:21.522Z,1011.3
2016-05-25T00:43:31.507Z,1011.33
2016-05-25T00:43:41.351Z,1011.35
2016-05-25T00:43:51.522Z,1011.33
2016-05-25T00:44:01.493Z,1011.31
2016-05-25T00:44:11.509Z,1011.34
2016-05-25T00:44:21.493Z,1011.33
2016-05-25T00:44:31.478Z,1011.34
2016-05-25T00:44:41.478Z,1011.32
2016-05-25T00:44:51.462Z,1011.36
2016-05-25T00:45:01.465Z,1011.37
2016-05-25T00:45:11.465Z,1011.36
2016-05-25T00:45:21.309Z,1011.35
2016-05-25T00:45:31.449Z,1011.33
2016-05-25T00:45:41.449Z,1011.35
2016-05-25T00:45:51.293Z,1011.31
2016-05-25T00:46:01.280Z,1011.32
2016-05-25T00:46:11.280Z,1011.35
2016-05-25T00:46:21.999Z,1011.35
2016-05-25T00:46:31.437Z,1011.36
2016-05-25T00:46:41.280Z,1011.37
2016-05-25T00:46:51.718Z,1011.36
2016-05-25T00:47:01.252Z,1011.39
2016-05-25T00:47:11.408Z,1011.39
2016-05-25T00:47:21.393Z,1011.37
2016-05-25T00:47:31.393Z,1011.4
2016-05-25T00:47:41.377Z,1011.38
2016-05-25T00:47:51.377Z,1011.37
2016-05-25T00:48:01.380Z,1011.33
2016-05-25T00:48:11.365Z,1011.4
2016-05-25T00:48:21.365Z,1011.36
2016-05-25T00:48:31.349Z,1011.38
2016-05-25T00:48:41.365Z,1011.32
2016-05-25T00:48:51.193Z,1011.36
2016-05-25T00:49:01.351Z,1011.38
2016-05-25T00:49:11.179Z,1011.33
2016-05-25T00:49:21.335Z,1011.37
2016-05-25T00:49:31.320Z,1011.39
2016-05-25T00:49:41.320Z,1011.36
2016-05-25T00:49:51.335Z,1011.33
2016-05-25T00:50:01.323Z,1011.36
2016-05-25T00:50:11.307Z,1011.33
2016-05-25T00:50:21.307Z,1011.33
2016-05-25T00:50:31.307Z,1011.33
2016-05-25T00:50:41.151Z,1011.3
2016-05-25T00:50:51.307Z,1011.33
2016-05-25T00:51:01.293Z,1011.34
2016-05-25T00:51:11.262Z,1011.33
2016-05-25T00:51:21.122Z,1011.32
2016-05-25T00:51:31.122Z,1011.34
2016-05-25T00:51:41.262Z,1011.34
2016-05-25T00:51:51.262Z,1011.33
2016-05-25T00:52:01.250Z,1011.33
2016-05-25T00:52:11.250Z,1011.33
2016-05-25T00:52:21.250Z,1011.29
2016-05-25T00:52:31.078Z,1011.34
2016-05-25T00:52:41.234Z,1011.32
2016-05-25T00:52:51.218Z,1011.31
2016-05-25T00:53:01.221Z,1011.32
2016-05-25T00:53:11.065Z,1011.34
2016-05-25T00:53:21.206Z,1011.31
2016-05-25T00:53:31.206Z,1011.35
2016-05-25T00:53:41.049Z,1011.33
2016-05-25T00:53:51.190Z,1011.33
2016-05-25T00:54:01.036Z,1011.34
2016-05-25T00:54:11.020Z,1011.32
2016-05-25T00:54:21.176Z,1011.32
2016-05-25T00:54:31.020Z,1011.32
2016-05-25T00:54:41.020Z,1011.31
2016-05-25T00:54:51.161Z,1011.32
2016-05-25T00:55:01.165Z,1011.36
2016-05-25T00:55:11.149Z,1011.3
2016-05-25T00:55:21.149Z,1011.37
2016-05-25T00:55:31.149Z,1011.34
2016-05-25T00:55:40.993Z,1011.34
2016-05-25T00:55:51.134Z,1011.4
2016-05-25T00:56:00.979Z,1011.34
2016-05-25T00:56:10.964Z,1011.33
2016-05-25T00:56:21.104Z,1011.3
2016-05-25T00:56:31.104Z,1011.34
2016-05-25T00:56:41.104Z,1011.38
2016-05-25T00:56:51.089Z,1011.35
2016-05-25T00:57:01.106Z,1011.34
2016-05-25T00:57:11.106Z,1011.35
2016-05-25T00:57:21.091Z,1011.35
2016-05-25T00:57:30.934Z,1011.34
2016-05-25T00:57:41.075Z,1011.35
2016-05-25T00:57:50.919Z,1011.36
2016-05-25T00:58:01.062Z,1011.35
2016-05-25T00:58:11.062Z,1011.32
2016-05-25T00:58:21.062Z,1011.32
2016-05-25T00:58:31.047Z,1011.32
2016-05-25T00:58:41.047Z,1011.31
2016-05-25T00:58:51.031Z,1011.31
2016-05-25T00:59:01.034Z,1011.35
2016-05-25T00:59:10.878Z,1011.31
2016-05-25T00:59:21.019Z,1011.35
2016-05-25T00:59:31.034Z,1011.3
2016-05-25T00:59:41.019Z,1011.33
2016-05-25T00:59:50.847Z,1011.35
2016-05-25T01:00:00.850Z,1011.35
2016-05-25T01:00:10.990Z,1011.32
2016-05-25T01:00:20.990Z,1011.36
2016-05-25T01:00:30.834Z,1011.31
2016-05-25T01:00:40.990Z,1011.33
2016-05-25T01:00:50.975Z,1011.32
2016-05-25T01:01:00.820Z,1011.37
2016-05-25T01:01:10.977Z,1011.36
2016-05-25T01:01:21.524Z,1011.33
2016-05-25T01:01:30.820Z,1011.35
2016-05-25T01:01:41.539Z,1011.32
2016-05-25T01:01:51.242Z,1011.35
2016-05-25T01:02:00.808Z,1011.34
2016-05-25T01:02:10.792Z,1011.34
2016-05-25T01:02:20.777Z,1011.37
2016-05-25T01:02:30.933Z,1011.35
2016-05-25T01:02:40.777Z,1011.33
2016-05-25T01:02:50.917Z,1011.37
2016-05-25T01:03:00.905Z,1011.4
2016-05-25T01:03:10.905Z,1011.37
2016-05-25T01:03:20.764Z,1011.37
2016-05-25T01:03:30.748Z,1011.37
2016-05-25T01:03:40.889Z,1011.38
2016-05-25T01:03:50.905Z,1011.39
2016-05-25T01:04:00.875Z,1011.37
2016-05-25T01:04:10.875Z,1011.38
2016-05-25T01:04:20.875Z,1011.39
2016-05-25T01:04:30.860Z,1011.38
2016-05-25T01:04:40.719Z,1011.39
2016-05-25T01:04:50.844Z,1011.4
2016-05-25T01:05:00.863Z,1011.35
2016-05-25T01:05:10.691Z,1011.41
2016-05-25T01:05:20.691Z,1011.38
2016-05-25T01:05:30.831Z,1011.4
2016-05-25T01:05:40.816Z,1011.4
2016-05-25T01:05:50.831Z,1011.41
2016-05-25T01:06:00.880Z,1011.41
2016-05-25T01:06:10.662Z,1011.42
2016-05-25T01:06:20.802Z,1011.4
2016-05-25T01:06:30.646Z,1011.38
2016-05-25T01:06:40.802Z,1011.38
2016-05-25T01:06:50.630Z,1011.39
2016-05-25T01:07:00.790Z,1011.4
2016-05-25T01:07:10.790Z,1011.42
2016-05-25T01:07:20.774Z,1011.42
2016-05-25T01:07:30.774Z,1011.37
2016-05-25T01:07:40.774Z,1011.38
2016-05-25T01:07:50.758Z,1011.33
2016-05-25T01:08:00.761Z,1011.36
2016-05-25T01:08:10.605Z,1011.39
2016-05-25T01:08:20.746Z,1011.37
2016-05-25T01:08:30.730Z,1011.36
2016-05-25T01:08:40.746Z,1011.33
2016-05-25T01:08:50.730Z,1011.35
2016-05-25T01:09:00.733Z,1011.37
2016-05-25T01:09:10.733Z,1011.37
2016-05-25T01:09:20.717Z,1011.39
2016-05-25T01:09:30.717Z,1011.4
2016-05-25T01:09:40.702Z,1011.37
2016-05-25T01:09:50.702Z,1011.36
2016-05-25T01:10:00.705Z,1011.36
2016-05-25T01:10:10.674Z,1011.36
2016-05-25T01:10:20.533Z,1011.37
2016-05-25T01:10:30.689Z,1011.37
2016-05-25T01:10:40.517Z,1011.35
2016-05-25T01:10:50.674Z,1011.35
2016-05-25T01:11:00.660Z,1011.36
2016-05-25T01:11:10.644Z,1011.41
2016-05-25T01:11:20.519Z,1011.38
2016-05-25T01:11:30.644Z,1011.37
2016-05-25T01:11:40.488Z,1011.4
2016-05-25T01:11:50.629Z,1011.4
2016-05-25T01:12:00.647Z,1011.4
2016-05-25T01:12:10.616Z,1011.44
2016-05-25T01:12:20.632Z,1011.36
2016-05-25T01:12:30.616Z,1011.38
2016-05-25T01:12:40.616Z,1011.35
2016-05-25T01:12:50.616Z,1011.4
2016-05-25T01:13:00.602Z,1011.39
2016-05-25T01:13:10.587Z,1011.42
2016-05-25T01:13:20.587Z,1011.41
2016-05-25T01:13:30.431Z,1011.44
2016-05-25T01:13:40.587Z,1011.41
2016-05-25T01:13:50.602Z,1011.39
2016-05-25T01:14:00.574Z,1011.42
2016-05-25T01:14:10.559Z,1011.42
2016-05-25T01:14:20.559Z,1011.42
2016-05-25T01:14:30.543Z,1011.41
2016-05-25T01:14:40.543Z,1011.43
2016-05-25T01:14:50.637Z,1011.43
2016-05-25T01:15:00.530Z,1011.45
2016-05-25T01:15:10.546Z,1011.44
2016-05-25T01:15:20.530Z,1011.43
2016-05-25T01:15:30.515Z,1011.45
2016-05-25T01:15:40.515Z,1011.41
2016-05-25T01:15:50.515Z,1011.43
2016-05-25T01:16:00.517Z,1011.44
2016-05-25T01:16:10.407Z,1011.42
2016-05-25T01:16:20.360Z,1011.46
2016-05-25T01:16:31.376Z,1011.44
2016-05-25T01:16:40.564Z,1011.46
2016-05-25T01:16:50.501Z,1011.42
2016-05-25T01:17:00.395Z,1011.48
2016-05-25T01:17:10.488Z,1011.44
2016-05-25T01:17:20.473Z,1011.44
2016-05-25T01:17:30.301Z,1011.45
2016-05-25T01:17:40.317Z,1011.43
2016-05-25T01:17:50.285Z,1011.43
2016-05-25T01:18:00.445Z,1011.41
2016-05-25T01:18:10.445Z,1011.43
2016-05-25T01:18:20.429Z,1011.43
2016-05-25T01:18:30.429Z,1011.44
2016-05-25T01:18:40.429Z,1011.44
2016-05-25T01:18:50.429Z,1011.46
2016-05-25T01:19:00.276Z,1011.42
2016-05-25T01:19:10.416Z,1011.43
2016-05-25T01:19:20.260Z,1011.44
2016-05-25T01:19:30.260Z,1011.45
2016-05-25T01:19:40.401Z,1011.46
2016-05-25T01:19:50.244Z,1011.48
2016-05-25T01:20:00.387Z,1011.45
2016-05-25T01:20:10.371Z,1011.46
2016-05-25T01:20:20.371Z,1011.48
2016-05-25T01:20:30.371Z,1011.44
2016-05-25T01:20:40.371Z,1011.45
2016-05-25T01:20:50.371Z,1011.45
2016-05-25T01:21:00.359Z,1011.48
2016-05-25T01:21:10.343Z,1011.43
2016-05-25T01:21:20.343Z,1011.46
2016-05-25T01:21:30.343Z,1011.45
2016-05-25T01:21:40.328Z,1011.45
2016-05-25T01:21:50.328Z,1011.42
2016-05-25T01:22:00.331Z,1011.46
2016-05-25T01:22:10.331Z,1011.45
2016-05-25T01:22:20.315Z,1011.43
2016-05-25T01:22:30.299Z,1011.4
2016-05-25T01:22:40.299Z,1011.44
2016-05-25T01:22:50.299Z,1011.41
2016-05-25T01:23:00.286Z,1011.43
2016-05-25T01:23:10.286Z,1011.46
2016-05-25T01:23:20.129Z,1011.49
2016-05-25T01:23:29.958Z,1011.45
2016-05-25T01:23:40.286Z,1011.43
2016-05-25T01:23:50.254Z,1011.47
2016-05-25T01:24:00.273Z,1011.43
2016-05-25T01:24:10.257Z,1011.43
2016-05-25T01:24:20.257Z,1011.45
2016-05-25T01:24:30.273Z,1011.41
2016-05-25T01:24:40.336Z,1011.43
2016-05-25T01:24:50.476Z,1011.41
2016-05-25T01:25:00.417Z,1011.46
2016-05-25T01:25:10.214Z,1011.42
2016-05-25T01:25:20.214Z,1011.41
2016-05-25T01:25:30.214Z,1011.44
2016-05-25T01:25:40.042Z,1011.46
2016-05-25T01:25:50.198Z,1011.43
2016-05-25T01:26:00.042Z,1011.44
2016-05-25T01:26:10.200Z,1011.45
2016-05-25T01:26:20.184Z,1011.45
2016-05-25T01:26:30.200Z,1011.44
2016-05-25T01:26:40.184Z,1011.41
2016-05-25T01:26:50.169Z,1011.41
2016-05-25T01:27:00.184Z,1011.41
2016-05-25T01:27:10.157Z,1011.44
2016-05-25T01:27:20.188Z,1011.46
2016-05-25T01:27:30.157Z,1011.41
2016-05-25T01:27:40.141Z,1011.42
2016-05-25T01:27:50.141Z,1011.42
2016-05-25T01:27:59.985Z,1011.43
2016-05-25T01:28:10.143Z,1011.41
2016-05-25T01:28:20.128Z,1011.43
2016-05-25T01:28:30.112Z,1011.4
2016-05-25T01:28:40.112Z,1011.41
2016-05-25T01:28:50.097Z,1011.45
2016-05-25T01:29:00.112Z,1011.43
2016-05-25T01:29:10.115Z,1011.39
2016-05-25T01:29:20.115Z,1011.41
2016-05-25T01:29:30.100Z,1011.41
2016-05-25T01:29:39.928Z,1011.44
2016-05-25T01:29:50.084Z,1011.42
2016-05-25T01:30:00.100Z,1011.4
2016-05-25T01:30:10.070Z,1011.4
2016-05-25T01:30:20.070Z,1011.41
2016-05-25T01:30:29.914Z,1011.4
2016-05-25T01:30:39.898Z,1011.42
2016-05-25T01:30:50.039Z,1011.42
2016-05-25T01:31:00.070Z,1011.44
2016-05-25T01:31:09.917Z,1011.41
2016-05-25T01:31:20.073Z,1011.38
2016-05-25T01:31:29.730Z,1011.37
2016-05-25T01:31:39.917Z,1011.39
2016-05-25T01:31:49.886Z,1011.38
2016-05-25T01:31:59.948Z,1011.34
2016-05-25T01:32:09.858Z,1011.36
2016-05-25T01:32:19.998Z,1011.38
2016-05-25T01:32:30.014Z,1011.37
2016-05-25T01:32:39.983Z,1011.38
2016-05-25T01:32:49.983Z,1011.34
2016-05-25T01:32:59.998Z,1011.35
2016-05-25T01:33:09.828Z,1011.39
2016-05-25T01:33:20.000Z,1011.35
2016-05-25T01:33:29.828Z,1011.38
2016-05-25T01:33:39.953Z,1011.41
2016-05-25T01:33:49.953Z,1011.41
2016-05-25T01:33:59.797Z,1011.39
2016-05-25T01:34:09.800Z,1011.36
2016-05-25T01:34:19.941Z,1011.38
2016-05-25T01:34:29.800Z,1011.4
2016-05-25T01:34:39.925Z,1011.39
2016-05-25T01:34:49.925Z,1011.4
2016-05-25T01:34:59.925Z,1011.4
2016-05-25T01:35:09.912Z,1011.4
2016-05-25T01:35:19.928Z,1011.38
2016-05-25T01:35:29.912Z,1011.36
2016-05-25T01:35:39.897Z,1011.37
2016-05-25T01:35:49.912Z,1011.37
2016-05-25T01:35:59.897Z,1011.37
2016-05-25T01:36:09.743Z,1011.39
2016-05-25T01:36:19.883Z,1011.37
2016-05-25T01:36:29.868Z,1011.33
2016-05-25T01:36:39.868Z,1011.31
2016-05-25T01:36:49.711Z,1011.35
2016-05-25T01:36:59.868Z,1011.37
2016-05-25T01:37:09.855Z,1011.36
2016-05-25T01:37:19.855Z,1011.34
2016-05-25T01:37:29.839Z,1011.37
2016-05-25T01:37:39.839Z,1011.36
2016-05-25T01:37:49.839Z,1011.38
2016-05-25T01:37:59.667Z,1011.33
2016-05-25T01:38:09.826Z,1011.34
2016-05-25T01:38:19.669Z,1011.35
2016-05-25T01:38:29.810Z,1011.35
2016-05-25T01:38:39.826Z,1011.33
2016-05-25T01:38:49.654Z,1011.37
2016-05-25T01:38:59.779Z,1011.33
2016-05-25T01:39:09.797Z,1011.31
2016-05-25T01:39:19.782Z,1011.33
2016-05-25T01:39:29.641Z,1011.35
2016-05-25T01:39:39.782Z,1011.31
2016-05-25T01:39:49.766Z,1011.32
2016-05-25T01:39:59.766Z,1011.32
2016-05-25T01:40:09.770Z,1011.33
2016-05-25T01:40:19.614Z,1011.32
2016-05-25T01:40:29.739Z,1011.31
2016-05-25T01:40:39.739Z,1011.31
2016-05-25T01:40:49.755Z,1011.32
2016-05-25T01:40:59.739Z,1011.29
2016-05-25T01:41:09.741Z,1011.28
2016-05-25T01:41:19.569Z,1011.28
2016-05-25T01:41:29.725Z,1011.33
2016-05-25T01:41:39.710Z,1011.3
2016-05-25T01:41:49.710Z,1011.3
2016-05-25T01:41:59.553Z,1011.29
2016-05-25T01:42:09.556Z,1011.28
2016-05-25T01:42:19.697Z,1011.29
2016-05-25T01:42:29.697Z,1011.27
2016-05-25T01:42:39.681Z,1011.27
2016-05-25T01:42:49.681Z,1011.31
2016-05-25T01:42:59.681Z,1011.31
2016-05-25T01:43:09.652Z,1011.3
2016-05-25T01:43:19.652Z,1011.3
2016-05-25T01:43:29.652Z,1011.24
2016-05-25T01:43:39.652Z,1011.28
2016-05-25T01:43:49.652Z,1011.3
2016-05-25T01:43:59.637Z,1011.3
2016-05-25T01:44:09.640Z,1011.27
2016-05-25T01:44:19.624Z,1011.3
2016-05-25T01:44:29.483Z,1011.3
2016-05-25T01:44:39.624Z,1011.31
2016-05-25T01:44:49.468Z,1011.28
2016-05-25T01:44:59.608Z,1011.26
2016-05-25T01:45:09.596Z,1011.29
2016-05-25T01:45:19.596Z,1011.33
2016-05-25T01:45:29.596Z,1011.33
2016-05-25T01:45:39.580Z,1011.3
2016-05-25T01:45:49.580Z,1011.34
2016-05-25T01:45:59.580Z,1011.32
2016-05-25T01:46:10.582Z,1011.3
2016-05-25T01:46:19.973Z,1011.32
2016-05-25T01:46:29.832Z,1011.3
2016-05-25T01:46:39.832Z,1011.32
2016-05-25T01:46:49.832Z,1011.36
2016-05-25T01:46:59.707Z,1011.35
2016-05-25T01:47:09.851Z,1011.31
2016-05-25T01:47:19.538Z,1011.34
2016-05-25T01:47:29.523Z,1011.32
2016-05-25T01:47:39.538Z,1011.38
2016-05-25T01:47:49.523Z,1011.32
2016-05-25T01:47:59.523Z,1011.38
2016-05-25T01:48:09.369Z,1011.33
2016-05-25T01:48:19.510Z,1011.34
2016-05-25T01:48:29.338Z,1011.32
2016-05-25T01:48:39.494Z,1011.35
2016-05-25T01:48:49.494Z,1011.33
2016-05-25T01:48:59.479Z,1011.39
2016-05-25T01:49:09.497Z,1011.35
2016-05-25T01:49:19.497Z,1011.31
2016-05-25T01:49:29.482Z,1011.35
2016-05-25T01:49:39.325Z,1011.33
2016-05-25T01:49:49.450Z,1011.29
2016-05-25T01:49:59.466Z,1011.34
2016-05-25T01:50:09.452Z,1011.36
2016-05-25T01:50:19.452Z,1011.33
2016-05-25T01:50:29.296Z,1011.36
2016-05-25T01:50:39.452Z,1011.34
2016-05-25T01:50:49.281Z,1011.29
2016-05-25T01:50:59.281Z,1011.32
2016-05-25T01:51:09.267Z,1011.33
2016-05-25T01:51:19.408Z,1011.35
2016-05-25T01:51:29.251Z,1011.29
2016-05-25T01:51:39.251Z,1011.34
2016-05-25T01:51:49.408Z,1011.32
2016-05-25T01:51:59.408Z,1011.24
2016-05-25T01:52:09.396Z,1011.28
2016-05-25T01:52:19.380Z,1011.29
2016-05-25T01:52:29.380Z,1011.28
2016-05-25T01:52:39.380Z,1011.28
2016-05-25T01:52:49.208Z,1011.3
2016-05-25T01:52:59.365Z,1011.34
2016-05-25T01:53:09.367Z,1011.28
2016-05-25T01:53:19.351Z,1011.26
2016-05-25T01:53:29.367Z,1011.25
2016-05-25T01:53:39.351Z,1011.3
2016-05-25T01:53:49.335Z,1011.27
2016-05-25T01:53:59.335Z,1011.22
2016-05-25T01:54:09.323Z,1011.23
2016-05-25T01:54:19.323Z,1011.23
2016-05-25T01:54:29.323Z,1011.28
2016-05-25T01:54:39.151Z,1011.24
2016-05-25T01:54:49.307Z,1011.26
2016-05-25T01:54:59.292Z,1011.24
2016-05-25T01:55:09.309Z,1011.26
2016-05-25T01:55:19.294Z,1011.27
2016-05-25T01:55:29.294Z,1011.24
2016-05-25T01:55:39.122Z,1011.24
2016-05-25T01:55:49.262Z,1011.28
2016-05-25T01:55:59.278Z,1011.28
2016-05-25T01:56:09.265Z,1011.25
2016-05-25T01:56:19.250Z,1011.25
2016-05-25T01:56:29.250Z,1011.24
2016-05-25T01:56:39.250Z,1011.25
2016-05-25T01:56:49.250Z,1011.26
2016-05-25T01:56:59.234Z,1011.24
2016-05-25T01:57:09.096Z,1011.22
2016-05-25T01:57:19.237Z,1011.26
2016-05-25T01:57:29.221Z,1011.25
2016-05-25T01:57:39.221Z,1011.21
2016-05-25T01:57:49.221Z,1011.26
2016-05-25T01:57:59.206Z,1011.24
2016-05-25T01:58:09.223Z,1011.25
2016-05-25T01:58:19.192Z,1011.2
2016-05-25T01:58:29.208Z,1011.2
2016-05-25T01:58:39.192Z,1011.21
2016-05-25T01:58:49.177Z,1011.28
2016-05-25T01:58:59.177Z,1011.25
2016-05-25T01:59:09.164Z,1011.22
2016-05-25T01:59:19.164Z,1011.22
2016-05-25T01:59:29.148Z,1011.23
2016-05-25T01:59:39.164Z,1011.2
2016-05-25T01:59:49.164Z,1011.16
2016-05-25T01:59:58.992Z,1011.2
2016-05-25T02:00:09.151Z,1011.21
2016-05-25T02:00:18.979Z,1011.15
2016-05-25T02:00:29.120Z,1011.2
2016-05-25T02:00:38.979Z,1011.19
2016-05-25T02:00:48.964Z,1011.16
2016-05-25T02:00:59.120Z,1011.17
2016-05-25T02:01:09.482Z,1011.19